sensor_id;sensor_type;location;lat;lon;timestamp;temperature;humidity
67186;HTU21D;54116;53.518;49.398;2023-06-14T00:01:53;-2.98;118.99
67186;HTU21D;54116;53.518;49.398;2023-06-14T00:04:20;-3.02;118.99
67186;HTU21D;54116;53.518;49.398;2023-06-14T00:06:46;-3.18;118.99
67186;HTU21D;54116;53.518;49.398;2023-06-14T00:09:12;-3.20;118.99
67186;HTU21D;54116;53.518;49.398;2023-06-14T00:11:40;-3.23;118.99
67186;HTU21D;54116;53.518;49.398;2023-06-14T00:14:06;-3.21;118.99
67186;HTU21D;54116;53.518;49.398;2023-06-14T00:16:32;-3.24;118.99
67186;HTU21D;54116;53.518;49.398;2023-06-14T00:18:59;-3.21;118.99
67186;HTU21D;54116;53.518;49.398;2023-06-14T00:21:25;-3.25;118.99
67186;HTU21D;54116;53.518;49.398;2023-06-14T00:23:54;-3.34;118.99
67186;HTU21D;54116;53.518;49.398;2023-06-14T00:26:21;-3.35;118.99
67186;HTU21D;54116;53.518;49.398;2023-06-14T00:28:47;-3.43;118.99
67186;HTU21D;54116;53.518;49.398;2023-06-14T00:31:13;-3.41;118.99
67186;HTU21D;54116;53.518;49.398;2023-06-14T00:33:39;-3.40;118.99
67186;HTU21D;54116;53.518;49.398;2023-06-14T00:36:05;-3.42;118.99
67186;HTU21D;54116;53.518;49.398;2023-06-14T00:38:31;-3.32;118.99
67186;HTU21D;54116;53.518;49.398;2023-06-14T00:40:57;-3.40;118.99
67186;HTU21D;54116;53.518;49.398;2023-06-14T00:43:23;-3.42;118.99
67186;HTU21D;54116;53.518;49.398;2023-06-14T00:45:49;-3.39;118.99
67186;HTU21D;54116;53.518;49.398;2023-06-14T00:48:17;-3.37;118.99
67186;HTU21D;54116;53.518;49.398;2023-06-14T00:50:44;-3.35;118.99
67186;HTU21D;54116;53.518;49.398;2023-06-14T00:53:12;-3.24;118.99
67186;HTU21D;54116;53.518;49.398;2023-06-14T00:55:41;-3.31;118.99
67186;HTU21D;54116;53.518;49.398;2023-06-14T00:58:07;-3.37;118.99
67186;HTU21D;54116;53.518;49.398;2023-06-14T01:00:34;-3.28;118.99
67186;HTU21D;54116;53.518;49.398;2023-06-14T01:03:01;-3.31;118.99
67186;HTU21D;54116;53.518;49.398;2023-06-14T01:05:29;-3.30;118.99
67186;HTU21D;54116;53.518;49.398;2023-06-14T01:10:27;-3.27;118.99
67186;HTU21D;54116;53.518;49.398;2023-06-14T01:13:03;-3.20;118.99
67186;HTU21D;54116;53.518;49.398;2023-06-14T01:15:31;-3.12;118.99
67186;HTU21D;54116;53.518;49.398;2023-06-14T01:17:58;-3.08;118.99
67186;HTU21D;54116;53.518;49.398;2023-06-14T01:20:31;-3.11;118.99
67186;HTU21D;54116;53.518;49.398;2023-06-14T01:22:58;-3.08;118.99
67186;HTU21D;54116;53.518;49.398;2023-06-14T01:25:25;-2.96;118.99
67186;HTU21D;54116;53.518;49.398;2023-06-14T01:28:03;-2.78;118.99
67186;HTU21D;54116;53.518;49.398;2023-06-14T01:30:30;-2.80;118.99
67186;HTU21D;54116;53.518;49.398;2023-06-14T01:32:59;-2.91;118.99
67186;HTU21D;54116;53.518;49.398;2023-06-14T01:35:25;-2.90;118.99
67186;HTU21D;54116;53.518;49.398;2023-06-14T01:37:53;-2.76;118.99
67186;HTU21D;54116;53.518;49.398;2023-06-14T01:40:19;-2.81;118.99
67186;HTU21D;54116;53.518;49.398;2023-06-14T01:42:47;-2.79;118.99
67186;HTU21D;54116;53.518;49.398;2023-06-14T01:45:15;-2.75;118.99
67186;HTU21D;54116;53.518;49.398;2023-06-14T01:47:44;-2.71;118.99
67186;HTU21D;54116;53.518;49.398;2023-06-14T01:50:11;-2.66;118.99
67186;HTU21D;54116;53.518;49.398;2023-06-14T01:52:37;-2.52;118.99
67186;HTU21D;54116;53.518;49.398;2023-06-14T01:55:05;-2.50;118.99
67186;HTU21D;54116;53.518;49.398;2023-06-14T01:57:31;-2.39;118.99
67186;HTU21D;54116;53.518;49.398;2023-06-14T01:59:59;-2.30;118.99
67186;HTU21D;54116;53.518;49.398;2023-06-14T02:02:26;-2.23;118.99
67186;HTU21D;54116;53.518;49.398;2023-06-14T02:04:52;-2.23;118.99
67186;HTU21D;54116;53.518;49.398;2023-06-14T02:07:23;-2.26;118.99
67186;HTU21D;54116;53.518;49.398;2023-06-14T02:09:49;-2.26;118.99
67186;HTU21D;54116;53.518;49.398;2023-06-14T02:12:16;-2.31;118.99
67186;HTU21D;54116;53.518;49.398;2023-06-14T02:14:42;-2.33;118.99
67186;HTU21D;54116;53.518;49.398;2023-06-14T02:17:08;-2.36;118.99
67186;HTU21D;54116;53.518;49.398;2023-06-14T02:19:34;-2.38;118.99
67186;HTU21D;54116;53.518;49.398;2023-06-14T02:22:00;-2.44;118.99
67186;HTU21D;54116;53.518;49.398;2023-06-14T02:24:26;-2.34;118.99
67186;HTU21D;54116;53.518;49.398;2023-06-14T02:26:52;-2.33;118.99
67186;HTU21D;54116;53.518;49.398;2023-06-14T02:29:18;-2.42;118.99
67186;HTU21D;54116;53.518;49.398;2023-06-14T02:31:44;-2.35;118.99
67186;HTU21D;54116;53.518;49.398;2023-06-14T02:34:12;-2.44;118.99
67186;HTU21D;54116;53.518;49.398;2023-06-14T02:36:38;-2.46;118.99
67186;HTU21D;54116;53.518;49.398;2023-06-14T02:39:08;-2.44;118.99
67186;HTU21D;54116;53.518;49.398;2023-06-14T02:41:35;-2.47;118.99
67186;HTU21D;54116;53.518;49.398;2023-06-14T02:44:01;-2.46;118.99
67186;HTU21D;54116;53.518;49.398;2023-06-14T02:46:27;-2.44;118.99
67186;HTU21D;54116;53.518;49.398;2023-06-14T02:48:53;-2.37;118.99
67186;HTU21D;54116;53.518;49.398;2023-06-14T02:51:19;-2.32;118.99
67186;HTU21D;54116;53.518;49.398;2023-06-14T02:53:45;-2.26;118.99
67186;HTU21D;54116;53.518;49.398;2023-06-14T02:56:11;-2.22;118.99
67186;HTU21D;54116;53.518;49.398;2023-06-14T02:58:38;-2.12;118.99
67186;HTU21D;54116;53.518;49.398;2023-06-14T03:01:05;-2.15;118.99
67186;HTU21D;54116;53.518;49.398;2023-06-14T03:03:33;-2.16;118.99
67186;HTU21D;54116;53.518;49.398;2023-06-14T03:05:59;-2.12;118.99
67186;HTU21D;54116;53.518;49.398;2023-06-14T03:08:31;-2.07;118.99
67186;HTU21D;54116;53.518;49.398;2023-06-14T03:10:59;-2.13;118.99
67186;HTU21D;54116;53.518;49.398;2023-06-14T03:13:25;-2.14;118.99
67186;HTU21D;54116;53.518;49.398;2023-06-14T03:15:52;-2.14;118.99
67186;HTU21D;54116;53.518;49.398;2023-06-14T03:18:18;-2.15;118.99
67186;HTU21D;54116;53.518;49.398;2023-06-14T03:20:46;-2.18;118.99
67186;HTU21D;54116;53.518;49.398;2023-06-14T03:23:12;-2.17;118.99
67186;HTU21D;54116;53.518;49.398;2023-06-14T03:25:38;-2.19;118.99
67186;HTU21D;54116;53.518;49.398;2023-06-14T03:28:07;-2.13;118.99
67186;HTU21D;54116;53.518;49.398;2023-06-14T03:30:33;-2.07;118.99
67186;HTU21D;54116;53.518;49.398;2023-06-14T03:33:00;-2.06;118.99
67186;HTU21D;54116;53.518;49.398;2023-06-14T03:35:30;-1.98;118.99
67186;HTU21D;54116;53.518;49.398;2023-06-14T03:37:56;-1.93;118.99
67186;HTU21D;54116;53.518;49.398;2023-06-14T03:40:22;-1.92;118.99
67186;HTU21D;54116;53.518;49.398;2023-06-14T03:42:58;-1.78;118.99
67186;HTU21D;54116;53.518;49.398;2023-06-14T03:45:26;-1.77;118.99
67186;HTU21D;54116;53.518;49.398;2023-06-14T03:47:52;-1.91;118.99
67186;HTU21D;54116;53.518;49.398;2023-06-14T03:50:18;-1.87;118.99
67186;HTU21D;54116;53.518;49.398;2023-06-14T03:52:44;-1.86;118.99
67186;HTU21D;54116;53.518;49.398;2023-06-14T03:55:11;-1.78;118.99
67186;HTU21D;54116;53.518;49.398;2023-06-14T03:57:39;-1.77;118.99
67186;HTU21D;54116;53.518;49.398;2023-06-14T04:00:06;-1.84;118.99
67186;HTU21D;54116;53.518;49.398;2023-06-14T04:02:32;-1.85;118.99
67186;HTU21D;54116;53.518;49.398;2023-06-14T04:04:58;-1.89;118.99
67186;HTU21D;54116;53.518;49.398;2023-06-14T04:07:25;-1.89;118.99
67186;HTU21D;54116;53.518;49.398;2023-06-14T04:09:55;-1.90;118.99
67186;HTU21D;54116;53.518;49.398;2023-06-14T04:12:21;-1.92;118.99
67186;HTU21D;54116;53.518;49.398;2023-06-14T04:14:47;-2.14;118.99
67186;HTU21D;54116;53.518;49.398;2023-06-14T04:17:13;-2.16;118.99
67186;HTU21D;54116;53.518;49.398;2023-06-14T04:19:40;-2.17;118.99
67186;HTU21D;54116;53.518;49.398;2023-06-14T04:22:06;-2.18;118.99
67186;HTU21D;54116;53.518;49.398;2023-06-14T04:24:32;-2.19;118.99
67186;HTU21D;54116;53.518;49.398;2023-06-14T04:26:58;-2.27;118.99
67186;HTU21D;54116;53.518;49.398;2023-06-14T04:29:25;-2.28;118.99
67186;HTU21D;54116;53.518;49.398;2023-06-14T04:31:54;-2.26;118.99
67186;HTU21D;54116;53.518;49.398;2023-06-14T04:34:20;-2.17;118.99
67186;HTU21D;54116;53.518;49.398;2023-06-14T04:36:47;-2.15;118.99
67186;HTU21D;54116;53.518;49.398;2023-06-14T04:39:19;-2.21;118.99
67186;HTU21D;54116;53.518;49.398;2023-06-14T04:41:46;-2.06;118.99
67186;HTU21D;54116;53.518;49.398;2023-06-14T04:44:13;-2.00;118.99
67186;HTU21D;54116;53.518;49.398;2023-06-14T04:46:39;-2.05;118.99
67186;HTU21D;54116;53.518;49.398;2023-06-14T04:49:17;-2.04;118.99
67186;HTU21D;54116;53.518;49.398;2023-06-14T04:51:44;-1.87;118.99
67186;HTU21D;54116;53.518;49.398;2023-06-14T04:54:11;-1.83;118.99
67186;HTU21D;54116;53.518;49.398;2023-06-14T04:56:41;-1.75;118.99
67186;HTU21D;54116;53.518;49.398;2023-06-14T04:59:11;-1.54;118.99
67186;HTU21D;54116;53.518;49.398;2023-06-14T05:01:38;-1.59;118.99
67186;HTU21D;54116;53.518;49.398;2023-06-14T05:04:04;-1.50;118.99
67186;HTU21D;54116;53.518;49.398;2023-06-14T05:06:30;-1.57;118.99
67186;HTU21D;54116;53.518;49.398;2023-06-14T05:08:57;-1.69;118.99
67186;HTU21D;54116;53.518;49.398;2023-06-14T05:11:23;-1.68;118.99
67186;HTU21D;54116;53.518;49.398;2023-06-14T05:13:52;-1.83;118.99
67186;HTU21D;54116;53.518;49.398;2023-06-14T05:16:19;-1.84;118.99
67186;HTU21D;54116;53.518;49.398;2023-06-14T05:18:46;-1.79;118.99
67186;HTU21D;54116;53.518;49.398;2023-06-14T05:21:13;-1.83;118.99
67186;HTU21D;54116;53.518;49.398;2023-06-14T05:23:43;-1.85;118.99
67186;HTU21D;54116;53.518;49.398;2023-06-14T05:26:10;-1.84;118.99
67186;HTU21D;54116;53.518;49.398;2023-06-14T05:28:37;-1.75;118.99
67186;HTU21D;54116;53.518;49.398;2023-06-14T05:31:03;-1.74;118.99
67186;HTU21D;54116;53.518;49.398;2023-06-14T05:33:29;-1.67;118.99
67186;HTU21D;54116;53.518;49.398;2023-06-14T05:35:55;-1.59;118.99
67186;HTU21D;54116;53.518;49.398;2023-06-14T05:38:21;-1.54;118.99
67186;HTU21D;54116;53.518;49.398;2023-06-14T05:40:47;-1.56;118.99
67186;HTU21D;54116;53.518;49.398;2023-06-14T05:43:13;-1.57;118.99
67186;HTU21D;54116;53.518;49.398;2023-06-14T05:45:40;-1.43;118.99
67186;HTU21D;54116;53.518;49.398;2023-06-14T05:48:06;-1.48;118.99
67186;HTU21D;54116;53.518;49.398;2023-06-14T05:50:33;-1.65;118.99
67186;HTU21D;54116;53.518;49.398;2023-06-14T05:52:59;-1.67;118.99
67186;HTU21D;54116;53.518;49.398;2023-06-14T05:55:25;-1.65;118.99
67186;HTU21D;54116;53.518;49.398;2023-06-14T05:57:51;-1.50;118.99
67186;HTU21D;54116;53.518;49.398;2023-06-14T06:00:18;-1.39;118.99
67186;HTU21D;54116;53.518;49.398;2023-06-14T06:02:45;-1.29;118.99
67186;HTU21D;54116;53.518;49.398;2023-06-14T06:05:13;-1.19;118.99
67186;HTU21D;54116;53.518;49.398;2023-06-14T06:07:41;-0.88;118.99
67186;HTU21D;54116;53.518;49.398;2023-06-14T06:10:07;-0.40;118.99
67186;HTU21D;54116;53.518;49.398;2023-06-14T06:12:34;-0.26;118.99
67186;HTU21D;54116;53.518;49.398;2023-06-14T06:15:00;-0.34;118.99
67186;HTU21D;54116;53.518;49.398;2023-06-14T06:17:26;-0.28;118.99
67186;HTU21D;54116;53.518;49.398;2023-06-14T06:19:53;-0.32;118.99
67186;HTU21D;54116;53.518;49.398;2023-06-14T06:22:19;-0.24;118.99
67186;HTU21D;54116;53.518;49.398;2023-06-14T06:24:45;-0.32;118.99
67186;HTU21D;54116;53.518;49.398;2023-06-14T06:27:11;-0.37;118.99
67186;HTU21D;54116;53.518;49.398;2023-06-14T06:29:38;-0.38;118.99
67186;HTU21D;54116;53.518;49.398;2023-06-14T06:32:05;-0.43;118.99
67186;HTU21D;54116;53.518;49.398;2023-06-14T06:34:31;-0.41;118.99
67186;HTU21D;54116;53.518;49.398;2023-06-14T06:36:57;-0.36;118.99
67186;HTU21D;54116;53.518;49.398;2023-06-14T06:39:23;-0.35;118.99
67186;HTU21D;54116;53.518;49.398;2023-06-14T06:41:49;-0.41;118.99
67186;HTU21D;54116;53.518;49.398;2023-06-14T06:44:15;-0.45;118.99
67186;HTU21D;54116;53.518;49.398;2023-06-14T06:46:43;-0.50;118.99
67186;HTU21D;54116;53.518;49.398;2023-06-14T06:49:10;-0.38;118.99
67186;HTU21D;54116;53.518;49.398;2023-06-14T06:51:40;-0.39;118.99
67186;HTU21D;54116;53.518;49.398;2023-06-14T06:54:07;-0.52;118.99
67186;HTU21D;54116;53.518;49.398;2023-06-14T06:56:34;-0.45;118.99
67186;HTU21D;54116;53.518;49.398;2023-06-14T06:59:01;-0.28;118.99
67186;HTU21D;54116;53.518;49.398;2023-06-14T07:01:27;0.05;118.99
67186;HTU21D;54116;53.518;49.398;2023-06-14T07:03:55;0.15;118.99
67186;HTU21D;54116;53.518;49.398;2023-06-14T07:06:21;0.19;118.99
67186;HTU21D;54116;53.518;49.398;2023-06-14T07:08:47;0.13;118.99
67186;HTU21D;54116;53.518;49.398;2023-06-14T07:11:16;0.28;118.99
67186;HTU21D;54116;53.518;49.398;2023-06-14T07:13:42;0.44;118.99
67186;HTU21D;54116;53.518;49.398;2023-06-14T07:16:08;0.47;118.99
67186;HTU21D;54116;53.518;49.398;2023-06-14T07:18:34;0.71;118.99
67186;HTU21D;54116;53.518;49.398;2023-06-14T07:21:01;0.78;118.99
67186;HTU21D;54116;53.518;49.398;2023-06-14T07:23:27;0.72;118.99
67186;HTU21D;54116;53.518;49.398;2023-06-14T07:25:53;0.51;118.99
67186;HTU21D;54116;53.518;49.398;2023-06-14T07:28:20;0.45;118.99
67186;HTU21D;54116;53.518;49.398;2023-06-14T07:30:46;0.48;118.99
67186;HTU21D;54116;53.518;49.398;2023-06-14T07:33:14;0.64;118.99
67186;HTU21D;54116;53.518;49.398;2023-06-14T07:35:40;0.75;118.99
67186;HTU21D;54116;53.518;49.398;2023-06-14T07:38:07;0.62;118.99
67186;HTU21D;54116;53.518;49.398;2023-06-14T07:40:33;0.62;118.99
67186;HTU21D;54116;53.518;49.398;2023-06-14T07:42:59;0.52;118.99
67186;HTU21D;54116;53.518;49.398;2023-06-14T07:45:25;0.42;118.99
67186;HTU21D;54116;53.518;49.398;2023-06-14T07:47:51;0.30;118.99
67186;HTU21D;54116;53.518;49.398;2023-06-14T07:50:17;0.37;118.99
67186;HTU21D;54116;53.518;49.398;2023-06-14T07:52:44;0.38;118.99
67186;HTU21D;54116;53.518;49.398;2023-06-14T07:55:11;0.38;118.99
67186;HTU21D;54116;53.518;49.398;2023-06-14T07:57:37;0.43;118.99
67186;HTU21D;54116;53.518;49.398;2023-06-14T08:00:04;0.53;118.99
67186;HTU21D;54116;53.518;49.398;2023-06-14T08:02:32;0.50;118.99
67186;HTU21D;54116;53.518;49.398;2023-06-14T08:04:58;0.51;118.99
67186;HTU21D;54116;53.518;49.398;2023-06-14T08:07:24;0.74;118.99
67186;HTU21D;54116;53.518;49.398;2023-06-14T08:09:51;0.62;118.99
67186;HTU21D;54116;53.518;49.398;2023-06-14T08:12:17;0.63;118.99
67186;HTU21D;54116;53.518;49.398;2023-06-14T08:14:43;0.67;118.99
67186;HTU21D;54116;53.518;49.398;2023-06-14T08:17:09;0.74;118.99
67186;HTU21D;54116;53.518;49.398;2023-06-14T08:19:35;0.72;118.99
67186;HTU21D;54116;53.518;49.398;2023-06-14T08:22:01;0.73;118.99
67186;HTU21D;54116;53.518;49.398;2023-06-14T08:24:27;0.69;118.99
67186;HTU21D;54116;53.518;49.398;2023-06-14T08:26:53;0.74;118.99
67186;HTU21D;54116;53.518;49.398;2023-06-14T08:29:20;0.73;118.99
67186;HTU21D;54116;53.518;49.398;2023-06-14T08:31:47;0.71;118.99
67186;HTU21D;54116;53.518;49.398;2023-06-14T08:34:13;0.72;118.99
67186;HTU21D;54116;53.518;49.398;2023-06-14T08:36:39;0.66;118.99
67186;HTU21D;54116;53.518;49.398;2023-06-14T08:39:06;0.74;118.99
67186;HTU21D;54116;53.518;49.398;2023-06-14T08:41:36;0.89;118.99
67186;HTU21D;54116;53.518;49.398;2023-06-14T08:44:02;0.73;118.99
67186;HTU21D;54116;53.518;49.398;2023-06-14T08:46:32;0.68;118.99
67186;HTU21D;54116;53.518;49.398;2023-06-14T08:48:59;0.59;118.99
67186;HTU21D;54116;53.518;49.398;2023-06-14T08:51:27;0.50;118.99
67186;HTU21D;54116;53.518;49.398;2023-06-14T08:54:00;0.53;118.99
67186;HTU21D;54116;53.518;49.398;2023-06-14T08:56:28;0.54;118.99
67186;HTU21D;54116;53.518;49.398;2023-06-14T08:58:55;0.69;118.99
67186;HTU21D;54116;53.518;49.398;2023-06-14T09:01:23;0.65;118.99
67186;HTU21D;54116;53.518;49.398;2023-06-14T09:03:50;0.75;118.99
67186;HTU21D;54116;53.518;49.398;2023-06-14T09:06:16;0.94;118.99
67186;HTU21D;54116;53.518;49.398;2023-06-14T09:08:46;0.97;118.99
67186;HTU21D;54116;53.518;49.398;2023-06-14T09:11:15;1.07;118.99
67186;HTU21D;54116;53.518;49.398;2023-06-14T09:13:42;1.17;118.99
67186;HTU21D;54116;53.518;49.398;2023-06-14T09:16:08;1.16;118.99
67186;HTU21D;54116;53.518;49.398;2023-06-14T09:18:39;1.01;118.99
67186;HTU21D;54116;53.518;49.398;2023-06-14T09:21:09;0.82;118.99
67186;HTU21D;54116;53.518;49.398;2023-06-14T09:23:40;0.72;118.99
67186;HTU21D;54116;53.518;49.398;2023-06-14T09:26:24;0.67;118.99
67186;HTU21D;54116;53.518;49.398;2023-06-14T09:28:53;0.62;118.99
67186;HTU21D;54116;53.518;49.398;2023-06-14T09:31:21;0.65;118.99
67186;HTU21D;54116;53.518;49.398;2023-06-14T09:33:49;0.63;118.99
67186;HTU21D;54116;53.518;49.398;2023-06-14T09:36:23;0.58;118.99
67186;HTU21D;54116;53.518;49.398;2023-06-14T09:38:59;0.62;118.99
67186;HTU21D;54116;53.518;49.398;2023-06-14T09:41:37;0.48;118.99
67186;HTU21D;54116;53.518;49.398;2023-06-14T09:44:07;0.50;118.99
67186;HTU21D;54116;53.518;49.398;2023-06-14T09:46:35;0.52;118.99
67186;HTU21D;54116;53.518;49.398;2023-06-14T09:49:05;0.46;118.99
67186;HTU21D;54116;53.518;49.398;2023-06-14T09:51:31;0.54;118.99
67186;HTU21D;54116;53.518;49.398;2023-06-14T09:54:02;0.32;118.99
67186;HTU21D;54116;53.518;49.398;2023-06-14T09:56:37;0.21;118.99
67186;HTU21D;54116;53.518;49.398;2023-06-14T09:59:09;0.14;118.99
67186;HTU21D;54116;53.518;49.398;2023-06-14T10:01:43;0.21;118.99
67186;HTU21D;54116;53.518;49.398;2023-06-14T10:04:10;0.19;118.99
67186;HTU21D;54116;53.518;49.398;2023-06-14T10:06:40;-0.05;118.99
67186;HTU21D;54116;53.518;49.398;2023-06-14T10:09:09;-0.10;118.99
67186;HTU21D;54116;53.518;49.398;2023-06-14T10:11:37;-0.16;118.99
67186;HTU21D;54116;53.518;49.398;2023-06-14T10:14:10;-0.24;118.99
67186;HTU21D;54116;53.518;49.398;2023-06-14T10:16:45;-0.17;118.99
67186;HTU21D;54116;53.518;49.398;2023-06-14T10:19:21;-0.19;118.99
67186;HTU21D;54116;53.518;49.398;2023-06-14T10:21:54;-0.15;118.99
67186;HTU21D;54116;53.518;49.398;2023-06-14T10:24:31;-0.19;118.99
67186;HTU21D;54116;53.518;49.398;2023-06-14T10:26:59;-0.16;118.99
67186;HTU21D;54116;53.518;49.398;2023-06-14T10:29:28;-0.19;118.99
67186;HTU21D;54116;53.518;49.398;2023-06-14T10:31:59;-0.17;118.99
67186;HTU21D;54116;53.518;49.398;2023-06-14T10:34:26;-0.19;118.99
67186;HTU21D;54116;53.518;49.398;2023-06-14T10:37:03;-0.11;118.99
67186;HTU21D;54116;53.518;49.398;2023-06-14T10:39:31;-0.08;118.99
67186;HTU21D;54116;53.518;49.398;2023-06-14T10:41:57;-0.05;118.99
67186;HTU21D;54116;53.518;49.398;2023-06-14T10:46:59;0.06;118.99
67186;HTU21D;54116;53.518;49.398;2023-06-14T10:49:43;-0.03;118.99
67186;HTU21D;54116;53.518;49.398;2023-06-14T10:52:13;0.06;118.99
67186;HTU21D;54116;53.518;49.398;2023-06-14T10:55:15;0.13;118.99
67186;HTU21D;54116;53.518;49.398;2023-06-14T10:57:45;0.04;118.99
67186;HTU21D;54116;53.518;49.398;2023-06-14T11:00:13;0.12;118.99
67186;HTU21D;54116;53.518;49.398;2023-06-14T11:05:29;0.17;118.99
67186;HTU21D;54116;53.518;49.398;2023-06-14T11:10:47;0.27;118.99
67186;HTU21D;54116;53.518;49.398;2023-06-14T11:13:16;0.48;118.99
67186;HTU21D;54116;53.518;49.398;2023-06-14T11:15:47;0.52;118.99
67186;HTU21D;54116;53.518;49.398;2023-06-14T11:18:13;0.52;118.99
67186;HTU21D;54116;53.518;49.398;2023-06-14T11:20:41;0.57;118.99
67186;HTU21D;54116;53.518;49.398;2023-06-14T11:23:08;0.68;118.99
67186;HTU21D;54116;53.518;49.398;2023-06-14T11:25:34;0.75;118.99
67186;HTU21D;54116;53.518;49.398;2023-06-14T11:28:00;0.99;118.99
67186;HTU21D;54116;53.518;49.398;2023-06-14T11:30:26;0.87;118.99
67186;HTU21D;54116;53.518;49.398;2023-06-14T11:32:53;0.81;118.99
67186;HTU21D;54116;53.518;49.398;2023-06-14T11:35:22;0.84;118.99
67186;HTU21D;54116;53.518;49.398;2023-06-14T11:37:55;0.93;118.99
67186;HTU21D;54116;53.518;49.398;2023-06-14T11:40:26;0.96;118.99
67186;HTU21D;54116;53.518;49.398;2023-06-14T11:43:01;0.89;118.99
67186;HTU21D;54116;53.518;49.398;2023-06-14T11:45:27;1.03;118.99
67186;HTU21D;54116;53.518;49.398;2023-06-14T11:47:59;1.16;118.99
67186;HTU21D;54116;53.518;49.398;2023-06-14T11:50:28;1.03;118.99
67186;HTU21D;54116;53.518;49.398;2023-06-14T11:52:59;1.16;118.99
67186;HTU21D;54116;53.518;49.398;2023-06-14T11:55:37;1.05;118.99
67186;HTU21D;54116;53.518;49.398;2023-06-14T11:58:04;1.20;118.99
67186;HTU21D;54116;53.518;49.398;2023-06-14T12:00:32;1.24;118.99
67186;HTU21D;54116;53.518;49.398;2023-06-14T12:02:58;1.37;118.99
67186;HTU21D;54116;53.518;49.398;2023-06-14T12:05:25;1.65;118.99
67186;HTU21D;54116;53.518;49.398;2023-06-14T12:08:02;1.61;118.99
67186;HTU21D;54116;53.518;49.398;2023-06-14T12:10:29;1.60;118.99
67186;HTU21D;54116;53.518;49.398;2023-06-14T12:12:59;1.51;118.99
67186;HTU21D;54116;53.518;49.398;2023-06-14T12:15:28;1.62;118.99
67186;HTU21D;54116;53.518;49.398;2023-06-14T12:17:57;1.49;118.99
67186;HTU21D;54116;53.518;49.398;2023-06-14T12:20:29;1.35;118.99
67186;HTU21D;54116;53.518;49.398;2023-06-14T12:22:56;1.36;118.99
67186;HTU21D;54116;53.518;49.398;2023-06-14T12:25:27;1.40;118.99
67186;HTU21D;54116;53.518;49.398;2023-06-14T12:27:54;1.23;118.99
67186;HTU21D;54116;53.518;49.398;2023-06-14T12:30:21;1.24;118.99
67186;HTU21D;54116;53.518;49.398;2023-06-14T12:32:47;1.16;118.99
67186;HTU21D;54116;53.518;49.398;2023-06-14T12:35:14;1.11;118.99
67186;HTU21D;54116;53.518;49.398;2023-06-14T12:37:41;1.01;118.99
67186;HTU21D;54116;53.518;49.398;2023-06-14T12:40:08;0.94;118.99
67186;HTU21D;54116;53.518;49.398;2023-06-14T12:42:34;1.13;118.99
67186;HTU21D;54116;53.518;49.398;2023-06-14T12:45:01;1.03;118.99
67186;HTU21D;54116;53.518;49.398;2023-06-14T12:47:28;0.93;118.99
67186;HTU21D;54116;53.518;49.398;2023-06-14T12:49:54;0.84;118.99
67186;HTU21D;54116;53.518;49.398;2023-06-14T12:52:20;0.99;118.99
67186;HTU21D;54116;53.518;49.398;2023-06-14T12:54:47;1.06;118.99
67186;HTU21D;54116;53.518;49.398;2023-06-14T12:57:13;0.94;118.99
67186;HTU21D;54116;53.518;49.398;2023-06-14T12:59:39;0.91;118.99
67186;HTU21D;54116;53.518;49.398;2023-06-14T13:02:18;0.89;118.99
67186;HTU21D;54116;53.518;49.398;2023-06-14T13:04:44;0.93;118.99
67186;HTU21D;54116;53.518;49.398;2023-06-14T13:07:10;1.02;118.99
67186;HTU21D;54116;53.518;49.398;2023-06-14T13:09:37;0.92;118.99
67186;HTU21D;54116;53.518;49.398;2023-06-14T13:12:03;0.84;118.99
67186;HTU21D;54116;53.518;49.398;2023-06-14T13:14:30;0.99;118.99
67186;HTU21D;54116;53.518;49.398;2023-06-14T13:16:57;0.95;118.99
67186;HTU21D;54116;53.518;49.398;2023-06-14T13:19:24;0.86;118.99
67186;HTU21D;54116;53.518;49.398;2023-06-14T13:21:50;0.95;118.99
67186;HTU21D;54116;53.518;49.398;2023-06-14T13:24:16;0.83;118.99
67186;HTU21D;54116;53.518;49.398;2023-06-14T13:26:43;0.88;118.99
67186;HTU21D;54116;53.518;49.398;2023-06-14T13:29:28;0.94;118.99
67186;HTU21D;54116;53.518;49.398;2023-06-14T13:31:56;0.95;118.99
67186;HTU21D;54116;53.518;49.398;2023-06-14T13:34:22;0.93;118.99
67186;HTU21D;54116;53.518;49.398;2023-06-14T13:36:49;0.94;118.99
67186;HTU21D;54116;53.518;49.398;2023-06-14T13:39:16;0.84;118.99
67186;HTU21D;54116;53.518;49.398;2023-06-14T13:41:42;1.02;118.99
67186;HTU21D;54116;53.518;49.398;2023-06-14T13:44:08;0.99;118.99
67186;HTU21D;54116;53.518;49.398;2023-06-14T13:46:36;0.96;118.99
67186;HTU21D;54116;53.518;49.398;2023-06-14T13:49:03;0.87;118.99
67186;HTU21D;54116;53.518;49.398;2023-06-14T13:51:31;0.91;118.99
67186;HTU21D;54116;53.518;49.398;2023-06-14T13:53:57;0.97;118.99
67186;HTU21D;54116;53.518;49.398;2023-06-14T13:56:23;0.86;118.99
67186;HTU21D;54116;53.518;49.398;2023-06-14T13:58:50;0.90;118.99
67186;HTU21D;54116;53.518;49.398;2023-06-14T14:01:17;0.99;118.99
67186;HTU21D;54116;53.518;49.398;2023-06-14T14:03:49;1.03;118.99
67186;HTU21D;54116;53.518;49.398;2023-06-14T14:06:15;1.09;118.99
67186;HTU21D;54116;53.518;49.398;2023-06-14T14:08:42;1.16;118.99
67186;HTU21D;54116;53.518;49.398;2023-06-14T14:11:09;1.08;118.99
67186;HTU21D;54116;53.518;49.398;2023-06-14T14:13:35;1.09;118.99
67186;HTU21D;54116;53.518;49.398;2023-06-14T14:16:02;1.16;118.99
67186;HTU21D;54116;53.518;49.398;2023-06-14T14:18:29;1.11;118.99
67186;HTU21D;54116;53.518;49.398;2023-06-14T14:20:55;1.14;118.99
67186;HTU21D;54116;53.518;49.398;2023-06-14T14:23:21;1.23;118.99
67186;HTU21D;54116;53.518;49.398;2023-06-14T14:25:47;1.17;118.99
67186;HTU21D;54116;53.518;49.398;2023-06-14T14:28:14;1.12;118.99
67186;HTU21D;54116;53.518;49.398;2023-06-14T14:30:42;1.01;118.99
67186;HTU21D;54116;53.518;49.398;2023-06-14T14:33:08;1.11;118.99
67186;HTU21D;54116;53.518;49.398;2023-06-14T14:35:44;1.04;118.99
67186;HTU21D;54116;53.518;49.398;2023-06-14T14:38:14;1.10;118.99
67186;HTU21D;54116;53.518;49.398;2023-06-14T14:40:43;1.11;118.99
67186;HTU21D;54116;53.518;49.398;2023-06-14T14:43:10;1.05;118.99
67186;HTU21D;54116;53.518;49.398;2023-06-14T14:45:37;0.92;118.99
67186;HTU21D;54116;53.518;49.398;2023-06-14T14:48:03;1.04;118.99
67186;HTU21D;54116;53.518;49.398;2023-06-14T14:50:29;0.95;118.99
67186;HTU21D;54116;53.518;49.398;2023-06-14T14:52:55;1.01;118.99
67186;HTU21D;54116;53.518;49.398;2023-06-14T14:55:22;0.84;118.99
67186;HTU21D;54116;53.518;49.398;2023-06-14T14:57:48;0.78;118.99
67186;HTU21D;54116;53.518;49.398;2023-06-14T15:00:14;0.84;118.99
67186;HTU21D;54116;53.518;49.398;2023-06-14T15:02:40;0.81;118.99
67186;HTU21D;54116;53.518;49.398;2023-06-14T15:05:07;0.62;118.99
67186;HTU21D;54116;53.518;49.398;2023-06-14T15:07:33;0.60;118.99
67186;HTU21D;54116;53.518;49.398;2023-06-14T15:10:00;0.54;118.99